createdAt,value
2018-03-23T00:03:12.376Z,22.50
2018-03-23T00:05:39.986Z,24.30
2018-03-23T00:08:07.559Z,23.40
2018-03-23T00:10:35.798Z,21.87
2018-03-23T00:13:04.101Z,23.48
2018-03-23T00:15:32.443Z,22.80
2018-03-23T00:18:00.033Z,23.57
2018-03-23T00:20:27.584Z,22.57
2018-03-23T00:22:55.169Z,23.23
2018-03-23T00:25:23.531Z,23.27
2018-03-23T00:27:51.110Z,22.70
2018-03-23T00:30:18.703Z,23.83
2018-03-23T00:32:46.270Z,21.80
2018-03-23T00:35:14.590Z,23.70
2018-03-23T00:37:42.156Z,25.12
2018-03-23T00:40:10.050Z,23.50
2018-03-23T00:42:38.366Z,23.57
2018-03-23T00:45:06.685Z,25.00
2018-03-23T00:47:34.634Z,25.42
2018-03-23T00:50:02.215Z,25.43
2018-03-23T00:52:29.785Z,24.80
2018-03-23T00:54:58.239Z,25.23
2018-03-23T00:57:26.603Z,24.87
2018-03-23T00:59:54.138Z,26.33
2018-03-23T01:02:22.051Z,25.17
2018-03-23T01:04:49.618Z,24.20
2018-03-23T01:07:17.176Z,24.80
2018-03-23T01:09:44.821Z,24.83
2018-03-23T01:12:12.357Z,23.90
2018-03-23T01:14:39.902Z,25.47
2018-03-23T01:17:07.506Z,25.70
2018-03-23T01:19:35.514Z,26.87
2018-03-23T01:22:03.439Z,26.45
2018-03-23T01:24:31.026Z,26.47
2018-03-23T01:26:58.581Z,26.10
2018-03-23T01:29:26.194Z,26.27
2018-03-23T01:31:53.745Z,26.07
2018-03-23T01:34:21.298Z,27.10
2018-03-23T01:36:48.873Z,28.57
2018-03-23T01:39:16.448Z,26.20
2018-03-23T01:41:44.055Z,27.80
2018-03-23T01:44:11.642Z,26.57
2018-03-23T01:46:39.319Z,26.30
2018-03-23T01:49:07.264Z,26.40
2018-03-23T01:51:35.650Z,26.40
2018-03-23T01:54:03.464Z,28.62
2018-03-23T01:56:31.051Z,28.80
2018-03-23T01:58:58.625Z,28.80
2018-03-23T02:01:26.273Z,29.65
2018-03-23T02:03:54.564Z,28.00
2018-03-23T02:06:22.167Z,28.20
2018-03-23T02:08:49.727Z,27.10
2018-03-23T02:11:17.352Z,28.07
2018-03-23T02:13:44.914Z,27.53
2018-03-23T02:16:12.557Z,28.15
2018-03-23T02:18:40.130Z,28.53
2018-03-23T02:21:13.986Z,28.67
2018-03-23T02:23:41.604Z,27.30
2018-03-23T02:26:09.923Z,26.60
2018-03-23T02:28:38.277Z,28.90
2018-03-23T02:31:06.680Z,27.97
2018-03-23T02:33:34.250Z,27.30
2018-03-23T02:36:02.574Z,27.60
2018-03-23T02:38:30.203Z,27.67
2018-03-23T02:40:57.768Z,26.60
2018-03-23T02:43:26.183Z,27.03
2018-03-23T02:45:54.490Z,28.23
2018-03-23T02:48:23.033Z,25.30
2018-03-23T02:50:50.609Z,25.33
2018-03-23T02:53:18.931Z,25.77
2018-03-23T02:55:46.516Z,26.90
2018-03-23T02:58:14.088Z,24.93
2018-03-23T03:00:42.437Z,25.80
2018-03-23T03:03:09.974Z,28.17
2018-03-23T03:05:38.377Z,26.90
2018-03-23T03:08:06.823Z,25.48
2018-03-23T03:10:34.362Z,27.00
2018-03-23T03:13:01.994Z,27.93
2018-03-23T03:15:30.304Z,28.30
2018-03-23T03:17:57.898Z,25.20
2018-03-23T03:20:26.212Z,27.23
2018-03-23T03:22:53.790Z,27.00
2018-03-23T03:25:22.106Z,26.43
2018-03-23T03:27:49.790Z,26.70
2018-03-23T03:30:18.102Z,27.77
2018-03-23T03:32:46.451Z,26.80
2018-03-23T03:35:14.018Z,27.47
2018-03-23T03:37:41.562Z,27.60
2018-03-23T03:40:09.146Z,26.60
2018-03-23T03:42:37.727Z,27.77
2018-03-23T03:45:06.684Z,27.63
2018-03-23T03:47:35.001Z,25.53
2018-03-23T03:50:04.090Z,27.60
2018-03-23T03:52:31.681Z,25.83
2018-03-23T03:54:59.989Z,29.00
2018-03-23T03:57:27.572Z,27.77
2018-03-23T03:59:55.103Z,29.00
2018-03-23T04:02:22.676Z,29.83
2018-03-23T04:04:50.229Z,25.90
2018-03-23T04:07:17.845Z,28.37
2018-03-23T04:09:45.406Z,28.60
2018-03-23T04:12:13.054Z,29.33
2018-03-23T04:14:41.365Z,27.43
2018-03-23T04:17:08.920Z,29.47
2018-03-23T04:19:37.433Z,28.73
2018-03-23T04:22:04.949Z,29.60
2018-03-23T04:24:32.529Z,29.33
2018-03-23T04:27:00.108Z,28.60
2018-03-23T04:29:28.475Z,29.57
2018-03-23T04:31:56.023Z,27.33
2018-03-23T04:34:23.582Z,28.20
2018-03-23T04:36:51.219Z,28.27
2018-03-23T04:39:18.763Z,26.80
2018-03-23T04:41:47.196Z,27.20
2018-03-23T04:44:14.733Z,28.10
2018-03-23T04:46:42.299Z,28.67
2018-03-23T04:49:09.844Z,27.10
2018-03-23T04:51:37.871Z,29.05
2018-03-23T04:54:05.757Z,30.10
2018-03-23T04:56:34.101Z,29.47
2018-03-23T04:59:01.688Z,31.55
2018-03-23T05:01:29.267Z,29.52
2018-03-23T05:03:56.857Z,31.12
2018-03-23T05:06:25.243Z,29.77
2018-03-23T05:08:53.598Z,31.13
2018-03-23T05:11:21.931Z,30.85
2018-03-23T05:13:49.515Z,30.67
2018-03-23T05:16:17.069Z,31.92
2018-03-23T05:18:44.760Z,31.00
2018-03-23T05:21:13.110Z,32.87
2018-03-23T05:23:40.659Z,32.33
2018-03-23T05:26:08.271Z,31.10
2018-03-23T05:28:36.484Z,32.08
2018-03-23T05:31:04.070Z,30.97
2018-03-23T05:33:31.637Z,32.37
2018-03-23T05:35:59.278Z,33.17
2018-03-23T05:38:26.832Z,30.70
2018-03-23T05:40:54.749Z,33.00
2018-03-23T05:43:22.318Z,31.57
2018-03-23T05:45:49.878Z,33.40
2018-03-23T05:48:17.439Z,31.55
2018-03-23T05:50:44.995Z,31.23
2018-03-23T05:53:13.360Z,30.10
2018-03-23T05:55:40.906Z,30.30
2018-03-23T05:58:08.481Z,31.03
2018-03-23T06:00:36.572Z,29.60
2018-03-23T06:03:04.258Z,28.80
2018-03-23T06:05:31.810Z,28.40
2018-03-23T06:07:59.401Z,29.60
2018-03-23T06:10:26.991Z,31.10
2018-03-23T06:12:54.625Z,29.03
2018-03-23T06:15:22.183Z,27.47
2018-03-23T06:17:49.774Z,26.27
2018-03-23T06:20:18.248Z,27.70
2018-03-23T06:22:45.844Z,26.17
2018-03-23T06:25:13.403Z,26.60
2018-03-23T06:27:40.997Z,26.50
2018-03-23T06:30:08.600Z,25.77
2018-03-23T06:32:37.712Z,25.17
2018-03-23T06:35:05.632Z,25.10
2018-03-23T06:37:33.982Z,24.10
2018-03-23T06:40:01.588Z,24.87
2018-03-23T06:42:29.196Z,24.90
2018-03-23T06:44:57.580Z,25.00
2018-03-23T06:47:25.226Z,25.00
2018-03-23T06:49:52.814Z,25.93
2018-03-23T06:52:20.368Z,27.07
2018-03-23T06:54:48.714Z,23.83
2018-03-23T06:57:16.270Z,23.53
2018-03-23T06:59:43.914Z,25.90
2018-03-23T07:02:11.570Z,24.90
2018-03-23T07:04:39.922Z,25.80
2018-03-23T07:07:08.262Z,26.07
2018-03-23T07:09:37.363Z,25.60
2018-03-23T07:14:57.793Z,26.10
2018-03-23T07:17:26.174Z,24.67
2018-03-23T07:19:53.750Z,26.30
2018-03-23T07:25:07.782Z,25.37
2018-03-23T07:27:35.695Z,24.23
2018-03-23T07:30:03.374Z,22.63
2018-03-23T07:32:31.021Z,23.43
2018-03-23T07:34:58.592Z,24.23
2018-03-23T07:37:26.902Z,23.27
2018-03-23T07:39:54.595Z,25.07
2018-03-23T07:42:22.939Z,23.97
2018-03-23T07:44:50.498Z,24.10
2018-03-23T07:47:18.847Z,24.63
2018-03-23T07:49:46.408Z,24.00
2018-03-23T07:52:14.008Z,24.37
2018-03-23T07:54:41.605Z,25.17
2018-03-23T07:57:09.175Z,24.27
2018-03-23T07:59:37.740Z,26.87
2018-03-23T08:02:07.040Z,25.80
2018-03-23T08:04:34.696Z,27.97
2018-03-23T08:07:02.362Z,26.87
2018-03-23T08:09:30.256Z,24.70
2018-03-23T08:11:57.848Z,24.93
2018-03-23T08:14:25.448Z,26.77
2018-03-23T08:16:53.040Z,26.50
2018-03-23T08:19:20.668Z,25.87
2018-03-23T08:21:48.215Z,23.70
2018-03-23T08:24:15.756Z,24.20
2018-03-23T08:26:43.324Z,24.00
2018-03-23T08:29:10.891Z,24.20
2018-03-23T08:31:39.256Z,25.23
2018-03-23T08:34:07.672Z,23.00
2018-03-23T08:36:35.721Z,24.53
2018-03-23T08:39:03.309Z,24.20
2018-03-23T08:41:31.007Z,20.97
2018-03-23T08:43:58.591Z,24.33
2018-03-23T08:46:26.168Z,24.13
2018-03-23T08:48:53.756Z,22.60
2018-03-23T08:51:21.329Z,21.20
2018-03-23T08:53:48.971Z,21.33
2018-03-23T08:56:16.542Z,22.53
2018-03-23T08:58:44.111Z,20.90
2018-03-23T09:01:12.476Z,22.37
2018-03-23T09:03:40.374Z,28.03
2018-03-23T09:06:08.015Z,22.20
2018-03-23T09:08:36.312Z,21.43
2018-03-23T09:11:03.967Z,22.60
2018-03-23T09:13:31.605Z,22.53
2018-03-23T09:15:59.296Z,21.87
2018-03-23T09:18:26.880Z,22.03
2018-03-23T09:20:54.546Z,21.20
2018-03-23T09:23:22.855Z,20.33
2018-03-23T09:25:50.591Z,22.40
2018-03-23T09:28:18.170Z,20.57
2018-03-23T09:30:45.791Z,20.63
2018-03-23T09:33:13.330Z,20.43
2018-03-23T09:35:41.773Z,19.80
2018-03-23T09:38:10.153Z,20.27
2018-03-23T09:40:38.775Z,20.50
2018-03-23T09:43:08.343Z,20.33
2018-03-23T09:45:38.092Z,20.90
2018-03-23T09:48:06.432Z,20.00
2018-03-23T09:50:34.130Z,18.70
2018-03-23T09:53:01.827Z,19.10
2018-03-23T09:58:34.689Z,19.93
2018-03-23T10:01:02.275Z,20.83
2018-03-23T10:03:29.910Z,19.17
2018-03-23T10:05:57.751Z,19.93
2018-03-23T10:08:26.280Z,17.90
2018-03-23T10:10:53.916Z,18.43
2018-03-23T10:13:21.489Z,18.70
2018-03-23T10:15:49.836Z,18.63
2018-03-23T10:18:17.456Z,18.57
2018-03-23T10:20:45.798Z,16.53
2018-03-23T10:23:13.370Z,17.03
2018-03-23T10:25:41.776Z,18.60
2018-03-23T10:28:09.363Z,18.10
2018-03-23T10:30:37.832Z,18.07
2018-03-23T10:33:06.783Z,18.90
2018-03-23T10:35:35.820Z,18.47
2018-03-23T10:38:03.851Z,18.40
2018-03-23T10:40:31.499Z,18.70
2018-03-23T10:43:00.009Z,19.90
2018-03-23T10:45:27.611Z,18.57
2018-03-23T10:47:55.187Z,18.87
2018-03-23T10:50:23.574Z,19.10
2018-03-23T10:52:51.895Z,17.37
2018-03-23T10:55:20.276Z,18.23
2018-03-23T10:57:47.859Z,17.53
2018-03-23T11:00:15.459Z,18.37
2018-03-23T11:02:48.730Z,18.80
2018-03-23T11:05:16.326Z,18.37
2018-03-23T11:07:43.900Z,18.40
2018-03-23T11:10:12.235Z,19.57
2018-03-23T11:12:39.861Z,18.30
2018-03-23T11:15:08.020Z,17.20
2018-03-23T11:17:36.313Z,16.00
2018-03-23T11:20:04.823Z,16.50
2018-03-23T11:22:33.222Z,16.80
2018-03-23T11:25:01.601Z,17.63
2018-03-23T11:27:29.297Z,18.40
2018-03-23T11:29:57.057Z,16.07
2018-03-23T11:32:24.671Z,17.27
2018-03-23T11:34:52.269Z,17.60
2018-03-23T11:37:20.601Z,16.27
2018-03-23T11:39:48.555Z,16.70
2018-03-23T11:42:17.171Z,17.77
2018-03-23T11:44:45.137Z,16.13
2018-03-23T11:47:12.736Z,20.70
2018-03-23T11:49:40.764Z,15.90
2018-03-23T11:52:08.408Z,16.23
2018-03-23T11:54:36.882Z,16.23
2018-03-23T11:57:04.499Z,16.47
2018-03-23T11:59:32.839Z,17.70
2018-03-23T12:02:00.456Z,17.50
2018-03-23T12:04:28.034Z,17.40
2018-03-23T12:06:55.951Z,19.80
2018-03-23T12:09:23.579Z,19.30
2018-03-23T12:11:51.163Z,19.23
2018-03-23T12:14:19.554Z,17.53
2018-03-23T12:16:47.068Z,18.90
2018-03-23T12:19:15.472Z,17.87
2018-03-23T12:21:43.065Z,19.20
2018-03-23T12:24:11.500Z,17.17
2018-03-23T12:26:39.650Z,18.30
2018-03-23T12:29:08.755Z,18.57
2018-03-23T12:31:36.861Z,19.20
2018-03-23T12:34:04.479Z,18.20
2018-03-23T12:36:32.055Z,19.43
2018-03-23T12:38:59.774Z,18.10
2018-03-23T12:41:28.171Z,16.60
2018-03-23T12:43:56.565Z,18.23
2018-03-23T12:46:24.241Z,16.33
2018-03-23T12:48:51.858Z,17.00
2018-03-23T12:51:20.090Z,16.47
2018-03-23T12:53:47.753Z,16.97
2018-03-23T12:56:15.358Z,17.07
2018-03-23T12:58:42.934Z,16.37
2018-03-23T13:01:10.515Z,18.50
2018-03-23T13:03:38.292Z,18.00
2018-03-23T13:06:06.981Z,17.07
2018-03-23T13:08:34.587Z,18.20
2018-03-23T13:11:02.903Z,18.60
2018-03-23T13:13:31.285Z,17.37
2018-03-23T13:15:58.905Z,17.97
2018-03-23T13:18:26.493Z,17.93
2018-03-23T13:20:54.065Z,18.27
2018-03-23T13:23:21.651Z,18.10
2018-03-23T13:25:49.241Z,16.93
2018-03-23T13:28:16.836Z,17.17
2018-03-23T13:30:44.433Z,20.30
2018-03-23T13:33:11.971Z,20.43
2018-03-23T13:35:39.525Z,18.90
2018-03-23T13:38:08.194Z,18.00
2018-03-23T13:40:36.833Z,17.27
2018-03-23T13:43:05.641Z,18.67
2018-03-23T13:45:33.216Z,18.27
2018-03-23T13:48:00.816Z,18.67
2018-03-23T13:50:28.421Z,16.60
2018-03-23T13:52:56.053Z,18.53
2018-03-23T13:55:23.784Z,15.47
2018-03-23T13:57:52.111Z,15.47
2018-03-23T14:00:26.140Z,16.57
2018-03-23T14:02:53.703Z,15.43
2018-03-23T14:05:21.275Z,15.53
2018-03-23T14:07:49.661Z,16.00
2018-03-23T14:10:17.568Z,15.77
2018-03-23T14:12:45.946Z,17.60
2018-03-23T14:15:13.556Z,15.07
2018-03-23T14:17:41.201Z,14.73
2018-03-23T14:20:08.804Z,14.10
2018-03-23T14:22:37.023Z,15.30
2018-03-23T14:25:04.574Z,14.87
2018-03-23T14:27:32.171Z,13.63
2018-03-23T14:29:59.740Z,15.73
2018-03-23T14:32:27.366Z,13.80
2018-03-23T14:34:54.942Z,14.00
2018-03-23T14:37:22.483Z,13.70
2018-03-23T14:39:50.089Z,14.60
2018-03-23T14:42:17.723Z,14.13
2018-03-23T14:44:45.323Z,14.40
2018-03-23T14:47:13.660Z,13.97
2018-03-23T14:49:41.314Z,14.53
2018-03-23T14:52:08.986Z,16.00
2018-03-23T14:54:37.869Z,14.97
2018-03-23T14:57:05.681Z,13.77
2018-03-23T14:59:34.416Z,13.40
2018-03-23T15:02:02.016Z,13.87
2018-03-23T15:04:29.638Z,14.63
2018-03-23T15:06:57.211Z,12.23
2018-03-23T15:09:24.860Z,14.80
2018-03-23T15:11:52.402Z,13.90
2018-03-23T15:14:20.020Z,14.40
2018-03-23T15:16:47.635Z,13.07
2018-03-23T15:19:15.572Z,13.40
2018-03-23T15:21:43.163Z,13.97
2018-03-23T15:24:10.731Z,14.10
2018-03-23T15:26:39.091Z,12.00
2018-03-23T15:29:08.818Z,13.83
2018-03-23T15:31:36.964Z,13.17
2018-03-23T15:34:04.582Z,12.07
2018-03-23T15:36:32.947Z,12.60
2018-03-23T15:39:01.281Z,13.13
2018-03-23T15:41:29.424Z,12.37
2018-03-23T15:43:56.997Z,12.63
2018-03-23T15:46:25.354Z,12.67
2018-03-23T15:48:53.653Z,13.00
2018-03-23T15:51:21.590Z,17.13
2018-03-23T15:53:49.146Z,13.93
2018-03-23T15:56:17.693Z,13.40
2018-03-23T15:58:45.326Z,13.10
2018-03-23T16:01:13.883Z,14.00
2018-03-23T16:03:42.664Z,13.50
2018-03-23T16:06:11.001Z,13.63
2018-03-23T16:08:39.537Z,14.00
2018-03-23T16:11:08.777Z,14.80
2018-03-23T16:13:36.853Z,12.97
2018-03-23T16:16:04.513Z,12.27
2018-03-23T16:18:32.352Z,12.47
2018-03-23T16:21:00.781Z,13.57
2018-03-23T16:23:28.398Z,13.10
2018-03-23T16:25:55.995Z,12.73
2018-03-23T16:28:23.570Z,13.70
2018-03-23T16:30:51.206Z,13.50
2018-03-23T16:33:18.834Z,13.40
2018-03-23T16:35:46.412Z,14.00
2018-03-23T16:38:14.035Z,14.70
2018-03-23T16:40:41.665Z,13.77
2018-03-23T16:43:09.591Z,14.13
2018-03-23T16:45:38.092Z,14.13
2018-03-23T16:48:06.595Z,14.30
2018-03-23T16:50:34.902Z,15.37
2018-03-23T16:53:02.899Z,16.03
2018-03-23T16:55:30.493Z,15.13
2018-03-23T16:57:58.062Z,14.20
2018-03-23T17:00:25.682Z,14.83
2018-03-23T17:02:54.051Z,12.87
2018-03-23T17:05:22.417Z,17.23
2018-03-23T17:07:49.989Z,13.60
2018-03-23T17:10:17.612Z,15.60
2018-03-23T17:12:45.240Z,15.80
2018-03-23T17:15:12.886Z,15.60
2018-03-23T17:17:41.337Z,13.80
2018-03-23T17:20:09.226Z,15.20
2018-03-23T17:22:37.434Z,14.00
2018-03-23T17:25:05.673Z,15.10
2018-03-23T17:27:33.300Z,13.77
2018-03-23T17:30:00.871Z,14.47
2018-03-23T17:32:29.235Z,14.27
2018-03-23T17:34:57.675Z,14.70
2018-03-23T17:37:25.562Z,14.67
2018-03-23T17:39:53.139Z,13.87
2018-03-23T17:42:20.740Z,13.80
2018-03-23T17:44:48.321Z,14.27
2018-03-23T17:47:16.297Z,14.00
2018-03-23T17:49:43.935Z,17.33
2018-03-23T17:52:11.630Z,17.93
2018-03-23T17:54:39.232Z,16.67
2018-03-23T17:57:07.806Z,14.53
2018-03-23T17:59:35.648Z,15.80
2018-03-23T18:02:03.282Z,16.67
2018-03-23T18:04:31.686Z,16.80
2018-03-23T18:06:59.259Z,16.63
2018-03-23T18:09:28.038Z,15.10
2018-03-23T18:11:55.669Z,16.17
2018-03-23T18:14:23.250Z,15.10
2018-03-23T18:16:50.895Z,16.30
2018-03-23T18:19:18.557Z,16.30
2018-03-23T18:21:47.022Z,17.10
2018-03-23T18:24:14.606Z,16.80
2018-03-23T18:29:13.023Z,17.10
2018-03-23T18:31:41.409Z,17.37
2018-03-23T18:34:09.037Z,17.37
2018-03-23T18:36:37.708Z,16.90
2018-03-23T18:39:05.680Z,15.97
2018-03-23T18:41:34.039Z,16.80
2018-03-23T18:44:01.642Z,16.83
2018-03-23T18:46:29.268Z,15.60
2018-03-23T18:48:56.856Z,15.43
2018-03-23T18:51:24.480Z,16.87
2018-03-23T18:53:52.219Z,17.80
2018-03-23T18:56:19.803Z,15.13
2018-03-23T18:58:48.203Z,16.03
2018-03-23T19:01:15.811Z,16.37
2018-03-23T19:03:43.418Z,15.53
2018-03-23T19:06:11.777Z,15.20
2018-03-23T19:08:40.208Z,15.20
2018-03-23T19:11:09.274Z,15.77
2018-03-23T19:13:37.340Z,16.27
2018-03-23T19:16:06.543Z,16.00
2018-03-23T19:18:34.962Z,17.93
2018-03-23T19:21:03.824Z,18.50
2018-03-23T19:23:31.465Z,19.10
2018-03-23T19:25:59.039Z,19.90
2018-03-23T19:28:27.407Z,18.77
2018-03-23T19:30:55.035Z,19.03
2018-03-23T19:33:22.605Z,19.97
2018-03-23T19:35:50.213Z,20.27
2018-03-23T19:38:17.846Z,20.97
2018-03-23T19:40:45.474Z,19.97
2018-03-23T19:43:13.162Z,19.57
2018-03-23T19:45:40.752Z,19.43
2018-03-23T19:48:08.361Z,19.27
2018-03-23T19:50:36.676Z,18.37
2018-03-23T19:53:04.456Z,18.27
2018-03-23T19:55:32.817Z,18.63
2018-03-23T19:58:01.142Z,18.93
2018-03-23T20:00:28.818Z,19.43
2018-03-23T20:02:56.492Z,18.97
2018-03-23T20:05:24.188Z,17.97
2018-03-23T20:07:52.553Z,18.93
2018-03-23T20:10:20.264Z,20.20
2018-03-23T20:12:47.899Z,18.70
2018-03-23T20:15:16.258Z,19.83
2018-03-23T20:17:50.402Z,19.83
2018-03-23T20:20:23.624Z,18.83
2018-03-23T20:22:51.272Z,17.97
2018-03-23T20:25:19.621Z,19.57
2018-03-23T20:27:53.281Z,21.90
2018-03-23T20:30:20.848Z,19.20
2018-03-23T20:32:48.414Z,18.77
2018-03-23T20:35:16.017Z,21.37
2018-03-23T20:37:44.377Z,20.07
2018-03-23T20:40:12.724Z,21.73
2018-03-23T20:42:40.282Z,20.43
2018-03-23T20:45:07.886Z,20.33
2018-03-23T20:47:35.472Z,19.60
2018-03-23T20:50:03.238Z,19.20
2018-03-23T20:52:30.857Z,20.10
2018-03-23T20:54:59.201Z,18.83
2018-03-23T20:57:27.648Z,19.83
2018-03-23T20:59:55.245Z,19.90
2018-03-23T21:02:22.857Z,19.70
2018-03-23T21:04:50.600Z,17.77
2018-03-23T21:07:18.226Z,18.90
2018-03-23T21:09:45.835Z,19.03
2018-03-23T21:12:14.163Z,18.40
2018-03-23T21:14:41.764Z,18.73
2018-03-23T21:17:09.331Z,18.50
2018-03-23T21:19:36.920Z,19.63
2018-03-23T21:22:05.409Z,18.50
2018-03-23T21:24:33.027Z,17.30
2018-03-23T21:27:00.611Z,18.53
2018-03-23T21:29:29.642Z,17.27
2018-03-23T21:31:58.224Z,18.10
2018-03-23T21:34:25.985Z,18.20
2018-03-23T21:36:54.326Z,17.47
2018-03-23T21:39:21.874Z,18.23
2018-03-23T21:41:50.248Z,18.07
2018-03-23T21:44:17.816Z,20.13
2018-03-23T21:46:46.180Z,18.80
2018-03-23T21:49:13.767Z,17.93
2018-03-23T21:51:41.351Z,18.50
2018-03-23T21:54:09.306Z,17.63
2018-03-23T21:56:37.648Z,18.10
2018-03-23T21:59:05.259Z,18.07
2018-03-23T22:01:32.912Z,17.63
2018-03-23T22:04:00.472Z,17.77
2018-03-23T22:06:29.455Z,16.80
2018-03-23T22:08:58.615Z,17.20
2018-03-23T22:11:28.740Z,20.03
2018-03-23T22:13:56.806Z,17.60
2018-03-23T22:16:24.414Z,18.50
2018-03-23T22:18:51.983Z,17.17
2018-03-23T22:21:19.634Z,17.30
2018-03-23T22:23:47.259Z,16.90
2018-03-23T22:26:14.815Z,17.23
2018-03-23T22:28:42.404Z,14.73
2018-03-23T22:31:09.960Z,15.20
2018-03-23T22:33:37.983Z,16.50
2018-03-23T22:36:05.550Z,16.07
2018-03-23T22:38:33.176Z,16.10
2018-03-23T22:41:00.789Z,15.47
2018-03-23T22:43:29.250Z,14.87
2018-03-23T22:45:57.629Z,13.87
2018-03-23T22:48:25.929Z,15.23
2018-03-23T22:50:53.639Z,16.23
2018-03-23T22:53:22.061Z,15.20
2018-03-23T22:55:49.665Z,15.90
2018-03-23T22:58:17.666Z,15.20
2018-03-23T23:00:45.252Z,15.87
2018-03-23T23:03:12.863Z,17.63
2018-03-23T23:05:40.425Z,14.90
2018-03-23T23:08:08.025Z,16.17
2018-03-23T23:10:35.580Z,15.43
2018-03-23T23:13:03.232Z,15.70
2018-03-23T23:15:30.849Z,17.13
2018-03-23T23:17:59.257Z,15.97
2018-03-23T23:20:27.530Z,15.87
2018-03-23T23:22:55.996Z,16.67
2018-03-23T23:25:23.575Z,18.10
2018-03-23T23:27:51.928Z,16.47
2018-03-23T23:30:20.284Z,18.80
2018-03-23T23:32:48.634Z,18.07
2018-03-23T23:35:24.015Z,17.97
2018-03-23T23:37:52.159Z,18.10
2018-03-23T23:40:19.792Z,19.90
2018-03-23T23:42:47.347Z,19.63
2018-03-23T23:45:14.985Z,21.00
2018-03-23T23:47:42.590Z,21.07
2018-03-23T23:50:10.242Z,21.57
2018-03-23T23:52:38.212Z,20.77
2018-03-23T23:55:05.850Z,19.00
2018-03-23T23:57:33.401Z,20.93
